KMYV/MYV METAR and TAF weather

Enter ICAO airport designator
Station Type Date Time Source
KMYV METAR 2019/06/26 19:53 UTC NOAA

KMYV 261953Z AUTO 14016KT 10SM CLR 27/10 A2990 RMK AO2 RAB29E36 SLP128 P0000 T02720100


Station Type Date Time Source
KMYV Decoded METAR 2019/06/26 19:53 UTC NOAA

MARYSVILLE YUBA COUNTY, CA, United States (KMYV) 39-06N 121-34W 21M
Jun 26, 2019 - 03:53 PM EDT / 2019.06.26 1953 UTC
Wind: from the SE (140 degrees) at 18 MPH (16 KT):0
Visibility: 10 mile(s):0
Sky conditions: clear
Precipitation last hour: A trace
Temperature: 81.0 F (27.2 C)
Dew Point: 50.0 F (10.0 C)
Relative Humidity: 34%
Pressure (altimeter): 29.9 in. Hg (1012 hPa)
ob: KMYV 261953Z AUTO 14016KT 10SM CLR 27/10 A2990 RMK AO2 RAB29E36 SLP128 P0000 T02720100
cycle: 20

Station Type Date Time Source
KMYV TAF UTC NOAA

Error!

Example: see airport list